sensor_id;sensor_type;location;lat;lon;timestamp;P1;durP1;ratioP1;P2;durP2;ratioP2
5285;SDS011;2665;53.112;7.358;2023-12-14T00:01:42;5.17;;;2.97;;
5285;SDS011;2665;53.112;7.358;2023-12-14T00:04:08;4.30;;;3.43;;
5285;SDS011;2665;53.112;7.358;2023-12-14T00:06:34;5.33;;;3.20;;
5285;SDS011;2665;53.112;7.358;2023-12-14T00:09:00;3.00;;;2.00;;
5285;SDS011;2665;53.112;7.358;2023-12-14T00:11:26;3.77;;;2.23;;
5285;SDS011;2665;53.112;7.358;2023-12-14T00:13:52;3.80;;;2.60;;
5285;SDS011;2665;53.112;7.358;2023-12-14T00:16:18;6.00;;;2.70;;
5285;SDS011;2665;53.112;7.358;2023-12-14T00:18:44;4.90;;;2.90;;
5285;SDS011;2665;53.112;7.358;2023-12-14T00:21:10;4.60;;;3.10;;
5285;SDS011;2665;53.112;7.358;2023-12-14T00:23:36;5.23;;;2.50;;
5285;SDS011;2665;53.112;7.358;2023-12-14T00:26:02;5.20;;;2.87;;
5285;SDS011;2665;53.112;7.358;2023-12-14T00:28:28;4.30;;;2.67;;
5285;SDS011;2665;53.112;7.358;2023-12-14T00:30:54;6.87;;;2.57;;
5285;SDS011;2665;53.112;7.358;2023-12-14T00:33:20;6.10;;;2.93;;
5285;SDS011;2665;53.112;7.358;2023-12-14T00:35:47;5.87;;;3.70;;
5285;SDS011;2665;53.112;7.358;2023-12-14T00:38:13;3.80;;;2.00;;
5285;SDS011;2665;53.112;7.358;2023-12-14T00:40:39;5.83;;;2.47;;
5285;SDS011;2665;53.112;7.358;2023-12-14T00:43:05;4.13;;;2.50;;
5285;SDS011;2665;53.112;7.358;2023-12-14T00:45:31;9.67;;;3.23;;
5285;SDS011;2665;53.112;7.358;2023-12-14T00:47:57;6.63;;;3.10;;
5285;SDS011;2665;53.112;7.358;2023-12-14T00:50:23;7.33;;;2.50;;
5285;SDS011;2665;53.112;7.358;2023-12-14T00:52:49;7.33;;;3.00;;
5285;SDS011;2665;53.112;7.358;2023-12-14T00:55:15;4.70;;;3.17;;
5285;SDS011;2665;53.112;7.358;2023-12-14T00:57:41;6.00;;;2.50;;
5285;SDS011;2665;53.112;7.358;2023-12-14T01:00:08;5.33;;;2.30;;
5285;SDS011;2665;53.112;7.358;2023-12-14T01:02:35;3.83;;;2.33;;
5285;SDS011;2665;53.112;7.358;2023-12-14T01:05:01;3.43;;;2.40;;
5285;SDS011;2665;53.112;7.358;2023-12-14T01:07:27;5.37;;;3.00;;
5285;SDS011;2665;53.112;7.358;2023-12-14T01:09:53;4.60;;;2.50;;
5285;SDS011;2665;53.112;7.358;2023-12-14T01:12:19;4.40;;;2.87;;
5285;SDS011;2665;53.112;7.358;2023-12-14T01:14:45;3.17;;;2.20;;
5285;SDS011;2665;53.112;7.358;2023-12-14T01:17:11;3.10;;;1.70;;
5285;SDS011;2665;53.112;7.358;2023-12-14T01:19:40;3.93;;;2.37;;
5285;SDS011;2665;53.112;7.358;2023-12-14T01:22:06;4.40;;;2.50;;
5285;SDS011;2665;53.112;7.358;2023-12-14T01:24:32;3.10;;;2.13;;
5285;SDS011;2665;53.112;7.358;2023-12-14T01:26:58;7.83;;;2.90;;
5285;SDS011;2665;53.112;7.358;2023-12-14T01:29:24;3.57;;;2.40;;
5285;SDS011;2665;53.112;7.358;2023-12-14T01:31:50;3.73;;;2.33;;
5285;SDS011;2665;53.112;7.358;2023-12-14T01:34:16;6.93;;;2.73;;
5285;SDS011;2665;53.112;7.358;2023-12-14T01:36:42;4.67;;;2.67;;
5285;SDS011;2665;53.112;7.358;2023-12-14T01:39:08;4.87;;;2.73;;
5285;SDS011;2665;53.112;7.358;2023-12-14T01:41:35;3.70;;;2.67;;
5285;SDS011;2665;53.112;7.358;2023-12-14T01:44:01;6.30;;;2.90;;
5285;SDS011;2665;53.112;7.358;2023-12-14T01:46:27;6.50;;;2.90;;
5285;SDS011;2665;53.112;7.358;2023-12-14T01:48:53;5.63;;;2.97;;
5285;SDS011;2665;53.112;7.358;2023-12-14T01:51:19;4.20;;;2.23;;
5285;SDS011;2665;53.112;7.358;2023-12-14T01:53:45;5.63;;;2.70;;
5285;SDS011;2665;53.112;7.358;2023-12-14T01:56:11;5.30;;;2.50;;
5285;SDS011;2665;53.112;7.358;2023-12-14T01:58:37;7.37;;;2.63;;
5285;SDS011;2665;53.112;7.358;2023-12-14T02:03:45;4.83;;;2.67;;
5285;SDS011;2665;53.112;7.358;2023-12-14T02:06:11;3.67;;;2.40;;
5285;SDS011;2665;53.112;7.358;2023-12-14T02:08:37;6.33;;;2.50;;
5285;SDS011;2665;53.112;7.358;2023-12-14T02:11:03;5.10;;;2.77;;
5285;SDS011;2665;53.112;7.358;2023-12-14T02:13:29;5.23;;;2.17;;
5285;SDS011;2665;53.112;7.358;2023-12-14T02:15:55;6.50;;;2.80;;
5285;SDS011;2665;53.112;7.358;2023-12-14T02:18:21;4.47;;;2.13;;
5285;SDS011;2665;53.112;7.358;2023-12-14T02:20:47;8.20;;;3.27;;
5285;SDS011;2665;53.112;7.358;2023-12-14T02:23:13;10.90;;;2.70;;
5285;SDS011;2665;53.112;7.358;2023-12-14T02:25:39;3.90;;;2.60;;
5285;SDS011;2665;53.112;7.358;2023-12-14T02:28:05;4.33;;;2.77;;
5285;SDS011;2665;53.112;7.358;2023-12-14T02:30:31;4.40;;;3.07;;
5285;SDS011;2665;53.112;7.358;2023-12-14T02:32:57;5.57;;;2.80;;
5285;SDS011;2665;53.112;7.358;2023-12-14T02:35:23;4.90;;;3.00;;
5285;SDS011;2665;53.112;7.358;2023-12-14T02:37:49;4.80;;;2.83;;
5285;SDS011;2665;53.112;7.358;2023-12-14T02:40:16;5.10;;;3.03;;
5285;SDS011;2665;53.112;7.358;2023-12-14T02:42:42;5.40;;;2.67;;
5285;SDS011;2665;53.112;7.358;2023-12-14T02:45:08;5.77;;;2.60;;
5285;SDS011;2665;53.112;7.358;2023-12-14T02:47:34;4.00;;;2.70;;
5285;SDS011;2665;53.112;7.358;2023-12-14T02:50:00;11.50;;;4.27;;
5285;SDS011;2665;53.112;7.358;2023-12-14T02:52:26;4.40;;;2.77;;
5285;SDS011;2665;53.112;7.358;2023-12-14T02:54:52;7.77;;;2.80;;
5285;SDS011;2665;53.112;7.358;2023-12-14T02:57:18;6.67;;;3.30;;
5285;SDS011;2665;53.112;7.358;2023-12-14T02:59:44;5.00;;;3.17;;
5285;SDS011;2665;53.112;7.358;2023-12-14T03:02:10;7.53;;;3.00;;
5285;SDS011;2665;53.112;7.358;2023-12-14T03:04:39;5.57;;;3.43;;
5285;SDS011;2665;53.112;7.358;2023-12-14T03:07:06;6.00;;;2.80;;
5285;SDS011;2665;53.112;7.358;2023-12-14T03:09:32;4.10;;;2.60;;
5285;SDS011;2665;53.112;7.358;2023-12-14T03:11:59;10.67;;;4.40;;
5285;SDS011;2665;53.112;7.358;2023-12-14T03:14:25;4.80;;;3.13;;
5285;SDS011;2665;53.112;7.358;2023-12-14T03:16:51;6.47;;;3.40;;
5285;SDS011;2665;53.112;7.358;2023-12-14T03:19:17;9.20;;;3.60;;
5285;SDS011;2665;53.112;7.358;2023-12-14T03:21:43;7.57;;;3.60;;
5285;SDS011;2665;53.112;7.358;2023-12-14T03:24:09;7.13;;;3.23;;
5285;SDS011;2665;53.112;7.358;2023-12-14T03:26:35;11.40;;;4.67;;
5285;SDS011;2665;53.112;7.358;2023-12-14T03:29:01;7.63;;;3.70;;
5285;SDS011;2665;53.112;7.358;2023-12-14T03:31:27;5.73;;;2.97;;
5285;SDS011;2665;53.112;7.358;2023-12-14T03:33:53;9.57;;;3.70;;
5285;SDS011;2665;53.112;7.358;2023-12-14T03:36:19;7.77;;;3.90;;
5285;SDS011;2665;53.112;7.358;2023-12-14T03:38:47;8.93;;;4.10;;
5285;SDS011;2665;53.112;7.358;2023-12-14T03:41:13;8.27;;;4.00;;
5285;SDS011;2665;53.112;7.358;2023-12-14T03:43:39;9.40;;;3.50;;
5285;SDS011;2665;53.112;7.358;2023-12-14T03:46:05;6.60;;;3.30;;
5285;SDS011;2665;53.112;7.358;2023-12-14T03:48:32;6.20;;;3.03;;
5285;SDS011;2665;53.112;7.358;2023-12-14T03:51:01;6.23;;;2.80;;
5285;SDS011;2665;53.112;7.358;2023-12-14T03:53:28;9.03;;;4.10;;
5285;SDS011;2665;53.112;7.358;2023-12-14T03:55:54;4.90;;;3.20;;
5285;SDS011;2665;53.112;7.358;2023-12-14T03:58:20;6.50;;;3.43;;
5285;SDS011;2665;53.112;7.358;2023-12-14T04:00:46;9.93;;;4.33;;
5285;SDS011;2665;53.112;7.358;2023-12-14T04:03:12;6.50;;;3.40;;
5285;SDS011;2665;53.112;7.358;2023-12-14T04:05:38;5.53;;;3.00;;
5285;SDS011;2665;53.112;7.358;2023-12-14T04:08:05;7.57;;;3.80;;
5285;SDS011;2665;53.112;7.358;2023-12-14T04:10:31;6.30;;;3.60;;
5285;SDS011;2665;53.112;7.358;2023-12-14T04:12:57;5.40;;;3.50;;
5285;SDS011;2665;53.112;7.358;2023-12-14T04:15:23;6.73;;;3.10;;
5285;SDS011;2665;53.112;7.358;2023-12-14T04:17:49;5.80;;;3.40;;
5285;SDS011;2665;53.112;7.358;2023-12-14T04:20:15;6.13;;;2.70;;
5285;SDS011;2665;53.112;7.358;2023-12-14T04:22:44;5.90;;;3.73;;
5285;SDS011;2665;53.112;7.358;2023-12-14T04:25:10;7.07;;;3.63;;
5285;SDS011;2665;53.112;7.358;2023-12-14T04:27:36;10.07;;;4.10;;
5285;SDS011;2665;53.112;7.358;2023-12-14T04:30:02;8.13;;;4.20;;
5285;SDS011;2665;53.112;7.358;2023-12-14T04:32:29;4.73;;;3.40;;
5285;SDS011;2665;53.112;7.358;2023-12-14T04:34:55;8.70;;;4.27;;
5285;SDS011;2665;53.112;7.358;2023-12-14T04:37:21;6.30;;;3.70;;
5285;SDS011;2665;53.112;7.358;2023-12-14T04:39:47;7.60;;;4.00;;
5285;SDS011;2665;53.112;7.358;2023-12-14T04:42:13;9.87;;;4.37;;
5285;SDS011;2665;53.112;7.358;2023-12-14T04:44:39;7.27;;;4.13;;
5285;SDS011;2665;53.112;7.358;2023-12-14T04:47:05;7.80;;;4.40;;
5285;SDS011;2665;53.112;7.358;2023-12-14T04:49:33;5.13;;;3.33;;
5285;SDS011;2665;53.112;7.358;2023-12-14T04:51:59;9.17;;;4.20;;
5285;SDS011;2665;53.112;7.358;2023-12-14T04:54:25;10.03;;;4.37;;
5285;SDS011;2665;53.112;7.358;2023-12-14T04:56:51;12.67;;;4.40;;
5285;SDS011;2665;53.112;7.358;2023-12-14T04:59:17;7.90;;;4.70;;
5285;SDS011;2665;53.112;7.358;2023-12-14T05:01:43;7.97;;;4.37;;
5285;SDS011;2665;53.112;7.358;2023-12-14T05:04:09;8.40;;;4.47;;
5285;SDS011;2665;53.112;7.358;2023-12-14T05:06:35;7.10;;;4.70;;
5285;SDS011;2665;53.112;7.358;2023-12-14T05:09:01;9.80;;;4.20;;
5285;SDS011;2665;53.112;7.358;2023-12-14T05:11:30;6.67;;;4.00;;
5285;SDS011;2665;53.112;7.358;2023-12-14T05:13:56;10.20;;;4.90;;
5285;SDS011;2665;53.112;7.358;2023-12-14T05:16:22;10.53;;;4.80;;
5285;SDS011;2665;53.112;7.358;2023-12-14T05:18:51;9.67;;;4.37;;
5285;SDS011;2665;53.112;7.358;2023-12-14T05:21:18;11.20;;;4.93;;
5285;SDS011;2665;53.112;7.358;2023-12-14T05:23:44;11.90;;;5.43;;
5285;SDS011;2665;53.112;7.358;2023-12-14T05:26:10;12.10;;;4.87;;
5285;SDS011;2665;53.112;7.358;2023-12-14T05:28:36;8.37;;;4.33;;
5285;SDS011;2665;53.112;7.358;2023-12-14T05:31:02;7.73;;;4.57;;
5285;SDS011;2665;53.112;7.358;2023-12-14T05:33:29;11.37;;;4.70;;
5285;SDS011;2665;53.112;7.358;2023-12-14T05:35:56;6.53;;;4.17;;
5285;SDS011;2665;53.112;7.358;2023-12-14T05:38:22;10.87;;;5.93;;
5285;SDS011;2665;53.112;7.358;2023-12-14T05:40:49;9.30;;;4.70;;
5285;SDS011;2665;53.112;7.358;2023-12-14T05:43:15;8.63;;;4.37;;
5285;SDS011;2665;53.112;7.358;2023-12-14T05:45:41;9.70;;;3.87;;
5285;SDS011;2665;53.112;7.358;2023-12-14T05:48:07;10.90;;;5.30;;
5285;SDS011;2665;53.112;7.358;2023-12-14T05:50:33;7.33;;;5.03;;
5285;SDS011;2665;53.112;7.358;2023-12-14T05:52:59;9.20;;;4.47;;
5285;SDS011;2665;53.112;7.358;2023-12-14T05:55:25;9.70;;;5.13;;
5285;SDS011;2665;53.112;7.358;2023-12-14T05:57:51;9.67;;;5.33;;
5285;SDS011;2665;53.112;7.358;2023-12-14T06:00:17;12.80;;;5.03;;
5285;SDS011;2665;53.112;7.358;2023-12-14T06:02:43;9.07;;;5.33;;
5285;SDS011;2665;53.112;7.358;2023-12-14T06:05:09;8.57;;;4.60;;
5285;SDS011;2665;53.112;7.358;2023-12-14T06:07:35;12.53;;;4.23;;
5285;SDS011;2665;53.112;7.358;2023-12-14T06:10:02;9.20;;;4.70;;
5285;SDS011;2665;53.112;7.358;2023-12-14T06:12:28;7.60;;;4.57;;
5285;SDS011;2665;53.112;7.358;2023-12-14T06:14:54;14.30;;;5.30;;
5285;SDS011;2665;53.112;7.358;2023-12-14T06:17:20;12.03;;;5.20;;
5285;SDS011;2665;53.112;7.358;2023-12-14T06:19:47;7.10;;;4.60;;
5285;SDS011;2665;53.112;7.358;2023-12-14T06:22:13;11.87;;;5.10;;
5285;SDS011;2665;53.112;7.358;2023-12-14T06:24:39;15.73;;;5.97;;
5285;SDS011;2665;53.112;7.358;2023-12-14T06:27:05;18.83;;;5.90;;
5285;SDS011;2665;53.112;7.358;2023-12-14T06:29:31;9.17;;;5.60;;
5285;SDS011;2665;53.112;7.358;2023-12-14T06:31:57;9.40;;;4.87;;
5285;SDS011;2665;53.112;7.358;2023-12-14T06:34:23;10.03;;;5.57;;
5285;SDS011;2665;53.112;7.358;2023-12-14T06:36:50;10.43;;;5.83;;
5285;SDS011;2665;53.112;7.358;2023-12-14T06:39:16;11.07;;;5.07;;
5285;SDS011;2665;53.112;7.358;2023-12-14T06:41:42;12.60;;;6.00;;
5285;SDS011;2665;53.112;7.358;2023-12-14T06:44:08;9.67;;;5.00;;
5285;SDS011;2665;53.112;7.358;2023-12-14T06:46:35;13.77;;;5.17;;
5285;SDS011;2665;53.112;7.358;2023-12-14T06:49:01;9.80;;;4.83;;
5285;SDS011;2665;53.112;7.358;2023-12-14T06:51:27;9.77;;;5.90;;
5285;SDS011;2665;53.112;7.358;2023-12-14T06:53:54;11.93;;;7.07;;
5285;SDS011;2665;53.112;7.358;2023-12-14T06:56:20;9.77;;;5.73;;
5285;SDS011;2665;53.112;7.358;2023-12-14T06:58:46;18.23;;;6.57;;
5285;SDS011;2665;53.112;7.358;2023-12-14T07:01:14;7.87;;;4.77;;
5285;SDS011;2665;53.112;7.358;2023-12-14T07:03:41;13.80;;;6.13;;
5285;SDS011;2665;53.112;7.358;2023-12-14T07:06:11;9.27;;;5.07;;
5285;SDS011;2665;53.112;7.358;2023-12-14T07:08:37;10.37;;;5.27;;
5285;SDS011;2665;53.112;7.358;2023-12-14T07:11:03;7.17;;;4.50;;
5285;SDS011;2665;53.112;7.358;2023-12-14T07:13:29;10.23;;;5.57;;
5285;SDS011;2665;53.112;7.358;2023-12-14T07:15:55;6.13;;;4.20;;
5285;SDS011;2665;53.112;7.358;2023-12-14T07:18:21;9.20;;;5.67;;
5285;SDS011;2665;53.112;7.358;2023-12-14T07:20:47;10.43;;;6.67;;
5285;SDS011;2665;53.112;7.358;2023-12-14T07:23:13;10.97;;;5.77;;
5285;SDS011;2665;53.112;7.358;2023-12-14T07:25:39;8.33;;;5.27;;
5285;SDS011;2665;53.112;7.358;2023-12-14T07:28:05;9.50;;;4.40;;
5285;SDS011;2665;53.112;7.358;2023-12-14T07:30:31;18.63;;;5.43;;
5285;SDS011;2665;53.112;7.358;2023-12-14T07:32:57;12.77;;;5.50;;
5285;SDS011;2665;53.112;7.358;2023-12-14T07:35:23;16.20;;;5.70;;
5285;SDS011;2665;53.112;7.358;2023-12-14T07:37:49;11.47;;;5.50;;
5285;SDS011;2665;53.112;7.358;2023-12-14T07:40:15;9.93;;;4.97;;
5285;SDS011;2665;53.112;7.358;2023-12-14T07:42:41;16.13;;;6.10;;
5285;SDS011;2665;53.112;7.358;2023-12-14T07:45:08;16.73;;;5.30;;
5285;SDS011;2665;53.112;7.358;2023-12-14T07:47:34;10.17;;;5.43;;
5285;SDS011;2665;53.112;7.358;2023-12-14T07:50:00;9.20;;;5.00;;
5285;SDS011;2665;53.112;7.358;2023-12-14T07:52:27;8.77;;;5.07;;
5285;SDS011;2665;53.112;7.358;2023-12-14T07:54:53;11.53;;;5.03;;
5285;SDS011;2665;53.112;7.358;2023-12-14T07:57:19;9.30;;;4.20;;
5285;SDS011;2665;53.112;7.358;2023-12-14T07:59:45;8.10;;;4.87;;
5285;SDS011;2665;53.112;7.358;2023-12-14T08:02:11;10.60;;;5.17;;
5285;SDS011;2665;53.112;7.358;2023-12-14T08:04:37;10.77;;;5.63;;
5285;SDS011;2665;53.112;7.358;2023-12-14T08:07:03;13.20;;;6.13;;
5285;SDS011;2665;53.112;7.358;2023-12-14T08:09:29;12.77;;;6.03;;
5285;SDS011;2665;53.112;7.358;2023-12-14T08:11:55;12.10;;;5.40;;
5285;SDS011;2665;53.112;7.358;2023-12-14T08:14:21;9.90;;;5.43;;
5285;SDS011;2665;53.112;7.358;2023-12-14T08:16:47;11.87;;;6.77;;
5285;SDS011;2665;53.112;7.358;2023-12-14T08:19:13;9.20;;;5.00;;
5285;SDS011;2665;53.112;7.358;2023-12-14T08:21:39;22.37;;;6.20;;
5285;SDS011;2665;53.112;7.358;2023-12-14T08:24:06;10.63;;;5.10;;
5285;SDS011;2665;53.112;7.358;2023-12-14T08:26:32;12.20;;;4.67;;
5285;SDS011;2665;53.112;7.358;2023-12-14T08:28:58;12.03;;;6.00;;
5285;SDS011;2665;53.112;7.358;2023-12-14T08:31:24;14.47;;;4.90;;
5285;SDS011;2665;53.112;7.358;2023-12-14T08:33:51;14.17;;;5.63;;
5285;SDS011;2665;53.112;7.358;2023-12-14T08:36:17;11.63;;;5.73;;
5285;SDS011;2665;53.112;7.358;2023-12-14T08:38:43;11.43;;;5.87;;
5285;SDS011;2665;53.112;7.358;2023-12-14T08:41:15;10.70;;;6.20;;
5285;SDS011;2665;53.112;7.358;2023-12-14T08:43:41;17.23;;;7.00;;
5285;SDS011;2665;53.112;7.358;2023-12-14T08:46:08;15.80;;;7.00;;
5285;SDS011;2665;53.112;7.358;2023-12-14T08:48:35;12.40;;;6.30;;
5285;SDS011;2665;53.112;7.358;2023-12-14T08:51:01;12.00;;;5.33;;
5285;SDS011;2665;53.112;7.358;2023-12-14T08:53:27;14.27;;;7.10;;
5285;SDS011;2665;53.112;7.358;2023-12-14T08:55:54;14.53;;;6.30;;
5285;SDS011;2665;53.112;7.358;2023-12-14T08:58:20;11.87;;;6.63;;
5285;SDS011;2665;53.112;7.358;2023-12-14T09:00:46;9.03;;;5.87;;
5285;SDS011;2665;53.112;7.358;2023-12-14T09:03:17;10.80;;;5.80;;
5285;SDS011;2665;53.112;7.358;2023-12-14T09:05:43;10.70;;;6.60;;
5285;SDS011;2665;53.112;7.358;2023-12-14T09:08:10;8.90;;;5.23;;
5285;SDS011;2665;53.112;7.358;2023-12-14T09:10:36;10.20;;;5.80;;
5285;SDS011;2665;53.112;7.358;2023-12-14T09:13:02;8.97;;;5.70;;
5285;SDS011;2665;53.112;7.358;2023-12-14T09:15:30;13.47;;;5.27;;
5285;SDS011;2665;53.112;7.358;2023-12-14T09:17:56;8.33;;;4.93;;
5285;SDS011;2665;53.112;7.358;2023-12-14T09:20:22;12.10;;;6.87;;
5285;SDS011;2665;53.112;7.358;2023-12-14T09:22:48;26.40;;;6.60;;
5285;SDS011;2665;53.112;7.358;2023-12-14T09:25:14;11.47;;;7.27;;
5285;SDS011;2665;53.112;7.358;2023-12-14T09:27:41;17.33;;;7.17;;
5285;SDS011;2665;53.112;7.358;2023-12-14T09:30:07;13.97;;;6.83;;
5285;SDS011;2665;53.112;7.358;2023-12-14T09:32:33;15.53;;;7.00;;
5285;SDS011;2665;53.112;7.358;2023-12-14T09:34:59;12.00;;;6.17;;
5285;SDS011;2665;53.112;7.358;2023-12-14T09:37:25;12.80;;;6.90;;
5285;SDS011;2665;53.112;7.358;2023-12-14T09:39:51;12.90;;;5.87;;
5285;SDS011;2665;53.112;7.358;2023-12-14T09:42:18;14.00;;;6.03;;
5285;SDS011;2665;53.112;7.358;2023-12-14T09:44:45;17.37;;;5.63;;
5285;SDS011;2665;53.112;7.358;2023-12-14T09:47:11;13.63;;;5.67;;
5285;SDS011;2665;53.112;7.358;2023-12-14T09:49:37;14.50;;;6.63;;
5285;SDS011;2665;53.112;7.358;2023-12-14T09:52:07;12.53;;;6.30;;
5285;SDS011;2665;53.112;7.358;2023-12-14T09:54:33;13.83;;;6.97;;
5285;SDS011;2665;53.112;7.358;2023-12-14T09:56:59;14.87;;;6.87;;
5285;SDS011;2665;53.112;7.358;2023-12-14T09:59:26;19.07;;;7.10;;
5285;SDS011;2665;53.112;7.358;2023-12-14T10:01:52;15.33;;;6.60;;
5285;SDS011;2665;53.112;7.358;2023-12-14T10:04:19;16.27;;;6.90;;
5285;SDS011;2665;53.112;7.358;2023-12-14T10:06:46;12.53;;;6.90;;
5285;SDS011;2665;53.112;7.358;2023-12-14T10:09:12;13.57;;;6.73;;
5285;SDS011;2665;53.112;7.358;2023-12-14T10:11:40;12.13;;;6.60;;
5285;SDS011;2665;53.112;7.358;2023-12-14T10:14:24;8.37;;;5.23;;
5285;SDS011;2665;53.112;7.358;2023-12-14T10:16:51;14.07;;;5.70;;
5285;SDS011;2665;53.112;7.358;2023-12-14T10:19:17;14.57;;;6.30;;
5285;SDS011;2665;53.112;7.358;2023-12-14T10:21:44;16.60;;;6.83;;
5285;SDS011;2665;53.112;7.358;2023-12-14T10:24:12;16.73;;;6.33;;
5285;SDS011;2665;53.112;7.358;2023-12-14T10:26:38;14.10;;;5.47;;
5285;SDS011;2665;53.112;7.358;2023-12-14T10:29:04;14.70;;;7.53;;
5285;SDS011;2665;53.112;7.358;2023-12-14T10:31:30;11.20;;;5.43;;
5285;SDS011;2665;53.112;7.358;2023-12-14T10:33:57;9.60;;;6.00;;
5285;SDS011;2665;53.112;7.358;2023-12-14T10:36:26;11.47;;;5.90;;
5285;SDS011;2665;53.112;7.358;2023-12-14T10:38:53;10.10;;;6.40;;
5285;SDS011;2665;53.112;7.358;2023-12-14T10:41:22;13.03;;;6.60;;
5285;SDS011;2665;53.112;7.358;2023-12-14T10:43:49;9.77;;;5.70;;
5285;SDS011;2665;53.112;7.358;2023-12-14T10:46:16;12.70;;;5.70;;
5285;SDS011;2665;53.112;7.358;2023-12-14T10:48:49;11.20;;;5.47;;
5285;SDS011;2665;53.112;7.358;2023-12-14T10:51:17;14.53;;;7.27;;
5285;SDS011;2665;53.112;7.358;2023-12-14T10:53:47;15.37;;;7.10;;
5285;SDS011;2665;53.112;7.358;2023-12-14T10:56:14;12.67;;;6.20;;
5285;SDS011;2665;53.112;7.358;2023-12-14T10:58:54;19.83;;;6.80;;
5285;SDS011;2665;53.112;7.358;2023-12-14T11:01:22;13.47;;;6.50;;
5285;SDS011;2665;53.112;7.358;2023-12-14T11:03:55;12.00;;;5.27;;
5285;SDS011;2665;53.112;7.358;2023-12-14T11:08:56;17.13;;;5.50;;
5285;SDS011;2665;53.112;7.358;2023-12-14T11:11:22;10.97;;;5.80;;
5285;SDS011;2665;53.112;7.358;2023-12-14T11:13:50;9.47;;;4.80;;
5285;SDS011;2665;53.112;7.358;2023-12-14T11:16:17;14.53;;;5.50;;
5285;SDS011;2665;53.112;7.358;2023-12-14T11:18:45;14.33;;;5.83;;
5285;SDS011;2665;53.112;7.358;2023-12-14T11:21:11;11.53;;;5.87;;
5285;SDS011;2665;53.112;7.358;2023-12-14T11:23:44;9.60;;;4.57;;
5285;SDS011;2665;53.112;7.358;2023-12-14T11:26:10;8.83;;;5.10;;
5285;SDS011;2665;53.112;7.358;2023-12-14T11:28:37;9.03;;;4.17;;
5285;SDS011;2665;53.112;7.358;2023-12-14T11:31:03;12.13;;;4.57;;
5285;SDS011;2665;53.112;7.358;2023-12-14T11:33:34;8.00;;;4.80;;
5285;SDS011;2665;53.112;7.358;2023-12-14T11:36:01;7.50;;;4.50;;
5285;SDS011;2665;53.112;7.358;2023-12-14T11:38:31;7.80;;;4.53;;
5285;SDS011;2665;53.112;7.358;2023-12-14T11:41:00;10.63;;;6.07;;
5285;SDS011;2665;53.112;7.358;2023-12-14T11:43:27;12.20;;;5.47;;
5285;SDS011;2665;53.112;7.358;2023-12-14T11:45:53;8.93;;;5.30;;
5285;SDS011;2665;53.112;7.358;2023-12-14T11:48:21;16.67;;;5.87;;
5285;SDS011;2665;53.112;7.358;2023-12-14T11:50:47;9.97;;;5.63;;
5285;SDS011;2665;53.112;7.358;2023-12-14T11:53:13;13.60;;;6.00;;
5285;SDS011;2665;53.112;7.358;2023-12-14T11:55:41;13.37;;;6.33;;
5285;SDS011;2665;53.112;7.358;2023-12-14T11:58:07;15.50;;;5.33;;
5285;SDS011;2665;53.112;7.358;2023-12-14T12:00:33;12.80;;;5.53;;
5285;SDS011;2665;53.112;7.358;2023-12-14T12:08:07;9.50;;;5.03;;
5285;SDS011;2665;53.112;7.358;2023-12-14T12:10:33;11.00;;;4.77;;
5285;SDS011;2665;53.112;7.358;2023-12-14T12:13:04;12.93;;;4.60;;
5285;SDS011;2665;53.112;7.358;2023-12-14T12:15:31;13.10;;;6.20;;
5285;SDS011;2665;53.112;7.358;2023-12-14T12:17:57;12.03;;;6.17;;
5285;SDS011;2665;53.112;7.358;2023-12-14T12:20:23;10.37;;;5.60;;
5285;SDS011;2665;53.112;7.358;2023-12-14T12:22:50;11.73;;;4.70;;
5285;SDS011;2665;53.112;7.358;2023-12-14T12:25:16;14.90;;;6.10;;
5285;SDS011;2665;53.112;7.358;2023-12-14T12:27:43;7.63;;;4.80;;
5285;SDS011;2665;53.112;7.358;2023-12-14T12:30:10;10.87;;;6.30;;
5285;SDS011;2665;53.112;7.358;2023-12-14T12:32:36;9.20;;;5.57;;
5285;SDS011;2665;53.112;7.358;2023-12-14T12:35:02;13.33;;;5.33;;
5285;SDS011;2665;53.112;7.358;2023-12-14T12:37:28;7.83;;;4.10;;
5285;SDS011;2665;53.112;7.358;2023-12-14T12:39:54;8.67;;;4.90;;
5285;SDS011;2665;53.112;7.358;2023-12-14T12:42:20;9.50;;;5.10;;
5285;SDS011;2665;53.112;7.358;2023-12-14T12:44:47;13.57;;;5.87;;
5285;SDS011;2665;53.112;7.358;2023-12-14T12:47:13;12.10;;;5.60;;
5285;SDS011;2665;53.112;7.358;2023-12-14T12:49:39;11.13;;;6.30;;
5285;SDS011;2665;53.112;7.358;2023-12-14T12:52:05;12.53;;;5.53;;
5285;SDS011;2665;53.112;7.358;2023-12-14T12:54:32;11.67;;;5.10;;
5285;SDS011;2665;53.112;7.358;2023-12-14T12:56:58;19.00;;;4.83;;
5285;SDS011;2665;53.112;7.358;2023-12-14T12:59:24;8.50;;;4.93;;
5285;SDS011;2665;53.112;7.358;2023-12-14T13:01:50;8.77;;;5.33;;
5285;SDS011;2665;53.112;7.358;2023-12-14T13:04:20;9.60;;;4.53;;
5285;SDS011;2665;53.112;7.358;2023-12-14T13:06:47;8.80;;;5.30;;
5285;SDS011;2665;53.112;7.358;2023-12-14T13:09:13;9.37;;;5.43;;
5285;SDS011;2665;53.112;7.358;2023-12-14T13:11:39;10.07;;;4.50;;
5285;SDS011;2665;53.112;7.358;2023-12-14T13:14:05;10.20;;;4.90;;
5285;SDS011;2665;53.112;7.358;2023-12-14T13:16:33;10.63;;;6.10;;
5285;SDS011;2665;53.112;7.358;2023-12-14T13:18:59;16.40;;;6.80;;
5285;SDS011;2665;53.112;7.358;2023-12-14T13:21:25;10.40;;;5.50;;
5285;SDS011;2665;53.112;7.358;2023-12-14T13:23:52;13.03;;;4.47;;
5285;SDS011;2665;53.112;7.358;2023-12-14T13:26:19;14.80;;;6.10;;
5285;SDS011;2665;53.112;7.358;2023-12-14T13:28:45;8.90;;;5.10;;
5285;SDS011;2665;53.112;7.358;2023-12-14T13:31:11;8.37;;;5.17;;
5285;SDS011;2665;53.112;7.358;2023-12-14T13:33:37;11.40;;;5.93;;
5285;SDS011;2665;53.112;7.358;2023-12-14T13:36:03;9.00;;;5.60;;
5285;SDS011;2665;53.112;7.358;2023-12-14T13:38:29;11.10;;;5.30;;
5285;SDS011;2665;53.112;7.358;2023-12-14T13:40:58;9.23;;;5.70;;
5285;SDS011;2665;53.112;7.358;2023-12-14T13:43:24;8.23;;;4.60;;
5285;SDS011;2665;53.112;7.358;2023-12-14T13:45:50;8.93;;;6.20;;
5285;SDS011;2665;53.112;7.358;2023-12-14T13:48:18;6.80;;;4.37;;
5285;SDS011;2665;53.112;7.358;2023-12-14T13:50:44;12.43;;;4.80;;
5285;SDS011;2665;53.112;7.358;2023-12-14T13:53:10;10.10;;;5.03;;
5285;SDS011;2665;53.112;7.358;2023-12-14T13:55:36;11.63;;;5.00;;
5285;SDS011;2665;53.112;7.358;2023-12-14T13:58:02;9.87;;;5.33;;
5285;SDS011;2665;53.112;7.358;2023-12-14T14:00:29;10.13;;;4.80;;
5285;SDS011;2665;53.112;7.358;2023-12-14T14:02:55;11.53;;;4.40;;
5285;SDS011;2665;53.112;7.358;2023-12-14T14:05:21;10.00;;;5.30;;
5285;SDS011;2665;53.112;7.358;2023-12-14T14:07:48;9.43;;;5.20;;
5285;SDS011;2665;53.112;7.358;2023-12-14T14:10:14;8.67;;;5.67;;
5285;SDS011;2665;53.112;7.358;2023-12-14T14:12:40;6.97;;;4.40;;
5285;SDS011;2665;53.112;7.358;2023-12-14T14:15:06;12.03;;;6.17;;
5285;SDS011;2665;53.112;7.358;2023-12-14T14:17:33;12.83;;;5.13;;
5285;SDS011;2665;53.112;7.358;2023-12-14T14:19:59;9.97;;;5.20;;
5285;SDS011;2665;53.112;7.358;2023-12-14T14:22:25;10.30;;;6.03;;
5285;SDS011;2665;53.112;7.358;2023-12-14T14:24:51;9.00;;;4.63;;
5285;SDS011;2665;53.112;7.358;2023-12-14T14:27:17;12.67;;;6.77;;
5285;SDS011;2665;53.112;7.358;2023-12-14T14:29:43;10.57;;;6.07;;
5285;SDS011;2665;53.112;7.358;2023-12-14T14:32:09;11.30;;;5.30;;
5285;SDS011;2665;53.112;7.358;2023-12-14T14:34:35;10.90;;;5.47;;
5285;SDS011;2665;53.112;7.358;2023-12-14T14:37:01;10.83;;;6.37;;
5285;SDS011;2665;53.112;7.358;2023-12-14T14:39:27;16.50;;;6.40;;
5285;SDS011;2665;53.112;7.358;2023-12-14T14:41:53;11.20;;;6.67;;
5285;SDS011;2665;53.112;7.358;2023-12-14T14:44:19;12.50;;;6.00;;
5285;SDS011;2665;53.112;7.358;2023-12-14T14:46:45;8.97;;;5.17;;
5285;SDS011;2665;53.112;7.358;2023-12-14T14:49:11;13.90;;;6.10;;
5285;SDS011;2665;53.112;7.358;2023-12-14T14:51:37;7.47;;;4.73;;
5285;SDS011;2665;53.112;7.358;2023-12-14T14:54:03;15.90;;;5.90;;
5285;SDS011;2665;53.112;7.358;2023-12-14T14:56:29;11.10;;;6.13;;
5285;SDS011;2665;53.112;7.358;2023-12-14T14:58:55;11.83;;;5.40;;
5285;SDS011;2665;53.112;7.358;2023-12-14T15:01:21;8.27;;;5.17;;
5285;SDS011;2665;53.112;7.358;2023-12-14T15:03:47;10.47;;;5.83;;
5285;SDS011;2665;53.112;7.358;2023-12-14T15:06:13;12.23;;;5.73;;
5285;SDS011;2665;53.112;7.358;2023-12-14T15:08:40;11.90;;;5.47;;
5285;SDS011;2665;53.112;7.358;2023-12-14T15:11:06;9.53;;;4.77;;
5285;SDS011;2665;53.112;7.358;2023-12-14T15:13:35;15.17;;;7.27;;
5285;SDS011;2665;53.112;7.358;2023-12-14T15:16:01;19.03;;;7.13;;